Time,TemperatureF,DewpointF,PressureIn,WindDirection,WindDirectionDegrees,WindSpeedMPH,WindSpeedGustMPH,Humidity,HourlyPrecipIn,Conditions,Clouds,dailyrainin,SoftwareType,DateUTC
2013-08-15 00:08:00,76.1,56.1,29.95,West,270,5.3,-999.0,50,-99.99,,,0.00,Acu-Link.com,2013-08-15 07:08:00,
2013-08-15 00:23:00,75.7,55.7,29.95,WNW,292,3.7,-999.0,50,-99.99,,,0.00,Acu-Link.com,2013-08-15 07:23:00,
2013-08-15 00:38:00,75.2,54.7,29.95,NNE,22,3.2,-999.0,49,-99.99,,,0.00,Acu-Link.com,2013-08-15 07:38:00,
2013-08-15 00:54:00,74.8,53.8,29.95,North,0,3.2,-999.0,48,-99.99,,,0.00,Acu-Link.com,2013-08-15 07:54:00,
2013-08-15 01:12:00,74.7,53.7,29.95,NE,45,2.7,-999.0,48,-99.99,,,0.00,Acu-Link.com,2013-08-15 08:12:00,
2013-08-15 01:28:00,74.7,53.7,29.95,West,270,4.2,-999.0,48,-99.99,,,0.00,Acu-Link.com,2013-08-15 08:28:00,
2013-08-15 01:43:00,74.5,52.9,29.95,NNW,337,5.3,-999.0,47,-99.99,,,0.00,Acu-Link.com,2013-08-15 08:43:00,
2013-08-15 01:58:00,73.6,52.7,29.94,West,270,4.2,-999.0,48,-99.99,,,0.00,Acu-Link.com,2013-08-15 08:58:00,
2013-08-15 02:13:00,72.5,52.2,29.95,NNE,22,2.7,-999.0,49,-99.99,,,0.00,Acu-Link.com,2013-08-15 09:13:00,
2013-08-15 02:28:00,71.8,52.1,29.95,NNE,22,5.3,-999.0,50,-99.99,,,0.00,Acu-Link.com,2013-08-15 09:28:00,
2013-08-15 02:43:00,71.2,52.1,29.95,WNW,292,2.7,-999.0,51,-99.99,,,0.00,Acu-Link.com,2013-08-15 09:43:00,
2013-08-15 02:58:00,70.3,51.8,29.95,NNE,22,1.7,-999.0,52,-99.99,,,0.00,Acu-Link.com,2013-08-15 09:58:00,
2013-08-15 03:14:00,70.3,52.3,29.95,North,0,1.7,-999.0,53,-99.99,,,0.00,Acu-Link.com,2013-08-15 10:14:00,
2013-08-15 03:29:00,70.3,52.9,29.96,North,0,3.2,-999.0,54,-99.99,,,0.00,Acu-Link.com,2013-08-15 10:29:00,
2013-08-15 03:44:00,69.6,52.7,29.96,North,0,2.7,-999.0,55,-99.99,,,0.00,Acu-Link.com,2013-08-15 10:44:00,
2013-08-15 03:59:00,69.1,53.2,29.97,North,0,2.7,-999.0,57,-99.99,,,0.00,Acu-Link.com,2013-08-15 10:59:00,
2013-08-15 04:14:00,68.5,53.6,29.98,North,0,0.0,-999.0,59,-99.99,,,0.00,Acu-Link.com,2013-08-15 11:14:00,
2013-08-15 04:30:00,67.6,53.2,29.98,North,0,0.0,-999.0,60,-99.99,,,0.00,Acu-Link.com,2013-08-15 11:30:00,
2013-08-15 04:45:00,66.6,53.6,29.98,North,0,0.0,-999.0,63,-99.99,,,0.00,Acu-Link.com,2013-08-15 11:45:00,
2013-08-15 05:00:00,65.8,53.3,29.98,North,0,0.0,-999.0,64,-99.99,,,0.00,Acu-Link.com,2013-08-15 12:00:00,
2013-08-15 05:16:00,65.1,53.9,29.99,North,0,0.0,-999.0,67,-99.99,,,0.00,Acu-Link.com,2013-08-15 12:16:00,
2013-08-15 05:31:00,64.6,53.8,29.99,North,0,0.0,-999.0,68,-99.99,,,0.00,Acu-Link.com,2013-08-15 12:31:00,
2013-08-15 05:46:00,64.8,54.0,30.00,North,0,0.0,-999.0,68,-99.99,,,0.00,Acu-Link.com,2013-08-15 12:46:00,
2013-08-15 06:01:00,64.0,54.0,30.00,North,0,0.0,-999.0,70,-99.99,,,0.00,Acu-Link.com,2013-08-15 13:01:00,
2013-08-15 06:17:00,64.8,54.0,30.01,North,0,2.2,-999.0,68,-99.99,,,0.00,Acu-Link.com,2013-08-15 13:17:00,
2013-08-15 06:32:00,64.0,54.0,30.01,WNW,292,2.2,-999.0,70,-99.99,,,0.00,Acu-Link.com,2013-08-15 13:32:00,
2013-08-15 06:48:00,64.4,54.0,30.02,WNW,292,3.2,-999.0,69,-99.99,,,0.00,Acu-Link.com,2013-08-15 13:48:00,
2013-08-15 07:03:00,64.9,53.7,30.02,West,270,2.2,-999.0,67,-99.99,,,0.00,Acu-Link.com,2013-08-15 14:03:00,
2013-08-15 07:18:00,65.7,53.6,30.03,West,270,1.7,-999.0,65,-99.99,,,0.00,Acu-Link.com,2013-08-15 14:18:00,
2013-08-15 07:34:00,66.0,53.5,30.03,WSW,247,2.2,-999.0,64,-99.99,,,0.00,Acu-Link.com,2013-08-15 14:34:00,
2013-08-15 08:04:00,68.9,54.4,30.03,West,270,1.7,-999.0,60,-99.99,,,0.00,Acu-Link.com,2013-08-15 15:04:00,
2013-08-15 08:20:00,72.3,54.7,30.04,WNW,292,2.7,-999.0,54,-99.99,,,0.00,Acu-Link.com,2013-08-15 15:20:00,
2013-08-15 08:35:00,72.5,55.9,30.04,NNE,22,2.7,-999.0,56,-99.99,,,0.00,Acu-Link.com,2013-08-15 15:35:00,
2013-08-15 08:50:00,75.0,56.2,30.04,NNW,337,1.1,-999.0,52,-99.99,,,0.00,Acu-Link.com,2013-08-15 15:50:00,
2013-08-15 09:06:00,77.0,57.5,30.03,WNW,292,2.2,-999.0,51,-99.99,,,0.00,Acu-Link.com,2013-08-15 16:06:00,
2013-08-15 09:21:00,77.4,56.7,30.03,NW,315,2.7,-999.0,49,-99.99,,,0.00,Acu-Link.com,2013-08-15 16:21:00,
2013-08-15 09:36:00,79.9,56.6,30.03,WNW,292,4.2,-999.0,45,-99.99,,,0.00,Acu-Link.com,2013-08-15 16:36:00,
2013-08-15 09:51:00,79.5,56.9,30.03,West,270,4.2,-999.0,46,-99.99,,,0.00,Acu-Link.com,2013-08-15 16:51:00,
2013-08-15 10:07:00,80.8,58.1,30.03,WNW,292,3.2,-999.0,46,-99.99,,,0.00,Acu-Link.com,2013-08-15 17:07:00,
2013-08-15 10:22:00,80.6,57.3,30.02,North,0,6.3,-999.0,45,-99.99,,,0.00,Acu-Link.com,2013-08-15 17:22:00,
2013-08-15 10:37:00,81.9,57.8,30.02,WNW,292,3.7,-999.0,44,-99.99,,,0.00,Acu-Link.com,2013-08-15 17:37:00,
2013-08-15 11:08:00,83.3,58.4,30.01,SW,225,3.7,-999.0,43,-99.99,,,0.00,Acu-Link.com,2013-08-15 18:08:00,
2013-08-15 11:39:00,86.9,58.2,29.99,West,270,7.8,-999.0,38,-99.99,,,0.00,Acu-Link.com,2013-08-15 18:39:00,
2013-08-15 12:09:00,89.1,59.4,29.98,West,270,4.2,-999.0,37,-99.99,,,0.00,Acu-Link.com,2013-08-15 19:09:00,
2013-08-15 12:24:00,90.3,59.7,29.98,West,270,4.7,-999.0,36,-99.99,,,0.00,Acu-Link.com,2013-08-15 19:24:00,
2013-08-15 12:40:00,91.2,60.5,29.99,NNW,337,2.2,-999.0,36,-99.99,,,0.00,Acu-Link.com,2013-08-15 19:40:00,
2013-08-15 12:56:00,91.4,60.6,29.99,ENE,67,5.3,-999.0,36,-99.99,,,0.00,Acu-Link.com,2013-08-15 19:56:00,
2013-08-15 13:26:00,93.7,61.0,29.98,SSE,157,1.7,-999.0,34,-99.99,,,0.00,Acu-Link.com,2013-08-15 20:26:00,
2013-08-15 13:41:00,94.1,59.7,29.98,SW,225,2.2,-999.0,32,-99.99,,,0.00,Acu-Link.com,2013-08-15 20:41:00,
2013-08-15 13:57:00,95.2,58.8,29.95,NW,315,3.7,-999.0,30,-99.99,,,0.00,Acu-Link.com,2013-08-15 20:57:00,
2013-08-15 14:12:00,96.4,58.9,29.95,West,270,2.7,-999.0,29,-99.99,,,0.00,Acu-Link.com,2013-08-15 21:12:00,
2013-08-15 14:42:00,97.7,59.0,29.93,West,270,3.7,-999.0,28,-99.99,,,0.00,Acu-Link.com,2013-08-15 21:42:00,
2013-08-15 14:57:00,98.1,59.4,29.93,WSW,247,4.2,-999.0,28,-99.99,,,0.00,Acu-Link.com,2013-08-15 21:57:00,
2013-08-15 15:13:00,100.0,60.0,29.92,NE,45,4.7,-999.0,27,-99.99,,,0.00,Acu-Link.com,2013-08-15 22:13:00,
2013-08-15 15:28:00,101.5,55.5,29.91,ENE,67,2.7,-999.0,22,-99.99,,,0.00,Acu-Link.com,2013-08-15 22:28:00,
2013-08-15 15:43:00,99.3,56.1,29.90,North,0,2.2,-999.0,24,-99.99,,,0.00,Acu-Link.com,2013-08-15 22:43:00,
2013-08-15 15:58:00,101.7,53.1,29.90,WSW,247,4.7,-999.0,20,-99.99,,,0.00,Acu-Link.com,2013-08-15 22:58:00,
2013-08-15 16:13:00,101.3,54.1,29.89,NW,315,3.7,-999.0,21,-99.99,,,0.00,Acu-Link.com,2013-08-15 23:13:00,
2013-08-15 16:29:00,101.3,54.1,29.89,NW,315,2.7,-999.0,21,-99.99,,,0.00,Acu-Link.com,2013-08-15 23:29:00,
2013-08-15 16:44:00,101.7,54.4,29.88,NNE,22,4.7,-999.0,21,-99.99,,,0.00,Acu-Link.com,2013-08-15 23:44:00,
2013-08-15 16:59:00,102.0,54.6,29.88,NNE,22,4.7,-999.0,21,-99.99,,,0.00,Acu-Link.com,2013-08-15 23:59:00,
2013-08-15 17:15:00,100.8,52.3,29.88,NNW,337,3.7,-999.0,20,-99.99,,,0.00,Acu-Link.com,2013-08-16 00:15:00,
2013-08-15 17:30:00,100.9,52.4,29.88,SE,135,4.7,-999.0,20,-99.99,,,0.00,Acu-Link.com,2013-08-16 00:30:00,
2013-08-15 17:45:00,100.2,53.2,29.90,West,270,2.7,-999.0,21,-99.99,,,0.00,Acu-Link.com,2013-08-16 00:45:00,
2013-08-15 18:47:00,99.3,57.2,29.88,WNW,292,3.7,-999.0,25,-99.99,,,0.00,Acu-Link.com,2013-08-16 01:47:00,
2013-08-15 19:02:00,98.1,58.3,29.88,North,0,3.7,-999.0,27,-99.99,,,0.00,Acu-Link.com,2013-08-16 02:02:00,
2013-08-15 19:17:00,96.1,59.6,29.88,North,0,2.2,-999.0,30,-99.99,,,0.00,Acu-Link.com,2013-08-16 02:17:00,
2013-08-15 19:33:00,93.0,60.4,29.89,WNW,292,1.7,-999.0,34,-99.99,,,0.00,Acu-Link.com,2013-08-16 02:33:00,
2013-08-15 19:48:00,90.5,60.6,29.90,West,270,2.2,-999.0,37,-99.99,,,0.00,Acu-Link.com,2013-08-16 02:48:00,
2013-08-15 20:03:00,88.3,60.2,29.90,West,270,2.7,-999.0,39,-99.99,,,0.00,Acu-Link.com,2013-08-16 03:03:00,
2013-08-15 20:18:00,86.4,59.9,29.92,WSW,247,2.7,-999.0,41,-99.99,,,0.00,Acu-Link.com,2013-08-16 03:18:00,
2013-08-15 20:34:00,84.9,59.2,29.92,WNW,292,2.7,-999.0,42,-99.99,,,0.00,Acu-Link.com,2013-08-16 03:34:00,
2013-08-15 20:49:00,83.8,59.5,29.92,WNW,292,2.7,-999.0,44,-99.99,,,0.00,Acu-Link.com,2013-08-16 03:49:00,
2013-08-15 21:05:00,82.9,60.0,29.93,North,0,2.2,-999.0,46,-99.99,,,0.00,Acu-Link.com,2013-08-16 04:05:00,
2013-08-15 21:20:00,82.0,59.8,29.93,North,0,1.7,-999.0,47,-99.99,,,0.00,Acu-Link.com,2013-08-16 04:20:00,
2013-08-15 21:35:00,81.3,59.1,29.94,WNW,292,2.7,-999.0,47,-99.99,,,0.00,Acu-Link.com,2013-08-16 04:35:00,
2013-08-15 21:50:00,80.8,58.7,29.95,NNW,337,3.2,-999.0,47,-99.99,,,0.00,Acu-Link.com,2013-08-16 04:50:00,
2013-08-15 22:06:00,80.4,58.3,29.95,WNW,292,2.7,-999.0,47,-99.99,,,0.00,Acu-Link.com,2013-08-16 05:06:00,
2013-08-15 22:21:00,80.1,58.6,29.95,NNW,337,4.2,-999.0,48,-99.99,,,0.00,Acu-Link.com,2013-08-16 05:21:00,
2013-08-15 22:36:00,79.3,59.0,29.95,NW,315,2.2,-999.0,50,-99.99,,,0.00,Acu-Link.com,2013-08-16 05:36:00,
2013-08-15 22:51:00,78.8,59.1,29.95,West,270,4.2,-999.0,51,-99.99,,,0.00,Acu-Link.com,2013-08-16 05:51:00,
2013-08-15 23:07:00,78.3,59.7,29.96,WNW,292,4.2,-999.0,53,-99.99,,,0.00,Acu-Link.com,2013-08-16 06:07:00,
2013-08-15 23:22:00,77.5,60.0,29.96,WNW,292,4.7,-999.0,55,-99.99,,,0.00,Acu-Link.com,2013-08-16 06:22:00,
2013-08-15 23:37:00,77.5,61.0,29.96,West,270,4.7,-999.0,57,-99.99,,,0.00,Acu-Link.com,2013-08-16 06:37:00,
2013-08-15 23:52:00,77.5,61.5,29.96,West,270,4.2,-999.0,58,-99.99,,,0.00,Acu-Link.com,2013-08-16 06:52:00,